Weather observations for the past three days for
Cape May County Airport
Imperial (Metric)
Date Time (edt) Wind (mph) Vis. (mi.) Weather Sky Cond. Temperature (ºF) Relative Humidity Wind Chill (°F) Heat Index (°F) Pressure Precipitation (in)
Air Dwpt 6 hour altimeter (in) sea level (mb) 1 hr 3 hr 6 hr
Max. Min.
08 06:56 N 6 10.00 Fair CLR 52 41 66% 29.96 1014.7
08 05:56 N 9 10.00 Fair CLR 52 41 66% 29.93 1013.8
08 04:56 NW 9 G 16 10.00 Fair CLR 54 43 67% 29.91 1012.9
08 03:56 W 10 10.00 A Few Clouds FEW090 55 48 77% 29.88 1011.9
08 02:56 W 9 10.00 Overcast FEW065 OVC100 54 48 80% 29.85 1011.1
08 01:56 W 7 10.00 Overcast OVC095 52 46.9 54 48 83% 29.86 1011.2
08 00:56 W 7 10.00 Fair CLR 52 46 80% 29.86 1011.4
07 23:56 W 6 10.00 Fair CLR 52 46 80% 29.85 1011.2
07 22:56 SW 6 10.00 Fair CLR 51.1 46.9 86% 29.86 1011.2
07 21:56 S 5 10.00 Fair CLR 50 46 86% 49 29.85 1010.9
07 20:56 SW 8 10.00 Mostly Cloudy BKN110 53.1 48.9 86% 29.83 1010.4
07 19:56 S 7 10.00 Mostly Cloudy BKN110 54 46.9 57.9 54 77% 29.81 1009.8 0.02
07 18:56 SW 10 10.00 A Few Clouds FEW110 55 48 77% 29.81 1009.6
07 17:56 S 7 10.00 Overcast OVC100 55 48 77% 29.81 1009.7
07 16:56 S 7 10.00 Overcast FEW029 OVC095 55.9 48 75% 29.81 1009.7 0.02
07 15:56 SW 6 10.00 Light Rain FEW027 SCT070 OVC090 55 48.9 80% 29.8 1009.3 0.01
07 14:56 W 5 10.00 Light Rain FEW022 BKN047 OVC080 55.9 48.9 77% 29.83 1010.3 0.01
07 13:56 W 6 10.00 Overcast FEW030 OVC075 57 45 59 54 64% 29.83 1010.5
07 12:56 W 5 10.00 Overcast OVC060 57.9 46.9 67% 29.85 1011.2
07 11:56 N 6 10.00 Overcast OVC060 57 45 64% 29.88 1012.0
07 10:56 N 10 10.00 Overcast BKN023 OVC055 57.9 48 70% 29.89 1012.4
07 09:56 N 8 10.00 Overcast FEW021 OVC055 55 46.9 74% 29.9 1012.7
07 08:56 N 7 10.00 Overcast OVC049 54 46.9 77% 29.9 1012.6
07 07:56 N 8 10.00 Overcast OVC045 54 46 66 53.1 75% 29.89 1012.3 0.01
07 06:56 N 7 10.00 Overcast OVC041 54 46.9 77% 29.88 1012.1
07 05:56 N 8 10.00 Overcast OVC037 53.1 46.9 80% 29.85 1011.2
07 04:56 N 12 G 20 10.00 Overcast OVC035 54 50 87% 29.84 1010.7 0.01
07 03:56 N 13 G 18 10.00 Overcast OVC008 55.9 54 93% 29.82 1009.8 0.01
07 02:56 NW 10 G 18 10.00 Overcast OVC015 61 57.9 90% 29.8 1009.2
07 01:56 SW 7 10.00 Overcast BKN026 OVC031 66.9 61 66.9 61 81% 29.79 1008.8
07 00:56 SW 9 10.00 Overcast OVC033 66.9 61 81% 29.8 1009.2
06 23:56 S 3 10.00 Partly Cloudy SCT080 61 57.9 90% 29.8 1009.4
06 22:56 SW 7 10.00 Partly Cloudy SCT090 66 61 84% 29.8 1009.2
06 21:56 SW 5 10.00 Overcast OVC100 63 59 87% 29.83 1010.1
06 20:56 SW 3 10.00 Mostly Cloudy BKN110 62.1 57.9 86% 29.82 1010.1
06 19:56 S 6 10.00 A Few Clouds FEW090 66.9 59 71.1 66 76% 29.81 1009.4
06 18:56 SW 10 10.00 Mostly Cloudy SCT065 BKN090 69.1 59 70% 29.81 1009.5
06 17:56 SW 15 10.00 Overcast FEW035 OVC075 70 59 68% 29.8 1009.1
06 16:56 SW 14 10.00 Mostly Cloudy BKN035 BKN110 69.1 59 70% 29.79 1008.9
06 15:56 S 12 10.00 Overcast FEW035 OVC100 69.1 59 70% 29.79 1009.0
06 14:56 SW 17 G 24 10.00 Mostly Cloudy BKN065 68 59 73% 29.82 1009.8
06 13:56 S 16 G 23 10.00 Overcast BKN041 BKN047 OVC085 68 59 71.1 62.1 73% 29.83 1010.5
06 12:56 S 10 10.00 Light Rain FEW040 SCT065 OVC085 64.9 57.9 78% 29.86 1011.2
06 11:56 S 13 10.00 Partly Cloudy SCT120 66.9 57 71% 29.88 1012.0
06 10:56 S 14 10.00 Mostly Cloudy BKN110 68 57 68% 29.88 1012.0
06 09:56 S 15 10.00 Fair CLR 68 57 68% 29.88 1012.0
06 08:56 S 14 G 21 10.00 Fair CLR 64.9 57 76% 29.9 1012.7
06 07:56 S 17 G 23 10.00 Fair CLR 63 57 64 59 81% 29.9 1012.6
06 06:56 S 14 G 20 10.00 Fair CLR 61 55.9 84% 29.9 1012.7
06 05:56 S 12 G 20 10.00 Fair CLR 60.1 55.9 86% 29.89 1012.4
06 04:56 S 12 10.00 Fair CLR 60.1 55.9 86% 29.9 1012.6
06 03:56 S 13 G 18 10.00 Fair CLR 61 55.9 84% 29.9 1012.7
06 02:56 S 12 10.00 Fair CLR 60.1 55.9 86% 29.91 1012.8
06 01:56 S 13 G 20 10.00 Fair CLR 60.1 55.9 64 60.1 86% 29.91 1013.0
06 00:56 S 16 10.00 Fair CLR 61 55.9 84% 29.93 1013.5
05 23:56 S 14 10.00 Fair CLR 61 55 81% 29.93 1013.5
05 22:56 S 14 10.00 Fair CLR 62.1 55 78% 29.93 1013.5
05 21:56 S 21 G 26 10.00 Fair and Breezy CLR 63 55 76% 29.93 1013.5
05 20:56 S 20 G 30 10.00 Fair CLR 63 55 76% 29.91 1012.9
05 19:56 S 15 G 28 10.00 Fair CLR 64 55 75.9 64 73% 29.9 1012.6
05 18:56 S 17 G 29 10.00 Fair CLR 66.9 54 63% 29.89 1012.5
05 17:56 S 21 G 29 10.00 Fair and Breezy CLR 69.1 54 59% 29.88 1012.0
05 16:56 S 23 G 37 9.00 Fair and Breezy CLR 72 55 55% 29.88 1011.8
05 15:56 S 22 G 30 10.00 Fair and Breezy CLR 73 55 53% 29.88 1012.0
05 14:56 S 16 G 24 10.00 Fair CLR 73.9 55.9 54% 29.9 1012.7
05 13:56 S 13 10.00 Fair CLR 75.9 57 75.9 66 52% 78 29.91 1013.0
05 12:56 S 13 10.00 Fair CLR 75 55.9 52% 78 29.92 1013.1
05 11:56 S 10 10.00 Fair CLR 75.9 55 48% 78 29.93 1013.5
05 10:56 S 15 G 22 10.00 Fair CLR 75.9 53.1 45% 78 29.92 1013.4
05 09:56 SW 16 G 22 10.00 Mostly Cloudy BKN120 71.1 52 51% 29.93 1013.6
05 08:56 SW 13 G 21 10.00 A Few Clouds FEW110 69.1 53.1 57% 29.93 1013.5
05 07:56 SW 14 G 21 10.00 Fair CLR 64.9 52 64.9 57.9 63% 29.92 1013.3
Date Time (edt) Wind (mph) Vis. (mi.) Weather Sky Cond. Air Dwpt Max. Min. Relative Humidity Wind Chill (°F) Heat Index (°F) altimeter (in) sea level (mb) 1 hr 3 hr 6 hr
6 hour
Temperature (ºF) Pressure Precipitation (in)